createdAt,value
2022-08-05T00:01:28.550Z,94.58
2022-08-05T00:03:57.117Z,94.56
2022-08-05T00:06:27.862Z,95.34
2022-08-05T00:09:00.241Z,95.64
2022-08-05T00:11:30.378Z,96.67
2022-08-05T00:14:01.317Z,97.50
2022-08-05T00:16:35.953Z,98.50
2022-08-05T00:19:03.006Z,99.96
2022-08-05T00:21:30.591Z,100.00
2022-08-05T00:24:10.756Z,100.00
2022-08-05T00:26:37.871Z,100.00
2022-08-05T00:29:04.253Z,100.00
2022-08-05T00:31:54.291Z,100.00
2022-08-05T00:34:54.016Z,100.00
2022-08-05T00:37:13.268Z,100.00
2022-08-05T00:39:57.100Z,100.00
2022-08-05T00:42:31.647Z,100.00
2022-08-05T00:44:58.704Z,100.00
2022-08-05T00:47:25.790Z,100.00
2022-08-05T00:49:52.225Z,100.00
2022-08-05T00:52:19.178Z,100.00
2022-08-05T00:54:55.267Z,100.00
2022-08-05T00:57:22.792Z,100.00
2022-08-05T00:59:51.938Z,100.00
2022-08-05T01:02:18.438Z,100.00
2022-08-05T01:04:44.787Z,100.00
2022-08-05T01:07:17.873Z,98.94
2022-08-05T01:09:44.502Z,99.18
2022-08-05T01:12:18.075Z,98.29
2022-08-05T01:14:49.161Z,97.73
2022-08-05T01:17:21.693Z,97.78
2022-08-05T01:20:02.240Z,95.89
2022-08-05T01:22:47.091Z,95.67
2022-08-05T01:25:40.545Z,95.79
2022-08-05T01:28:26.622Z,96.18
2022-08-05T01:31:04.838Z,96.57
2022-08-05T01:33:35.716Z,96.67
2022-08-05T01:36:03.653Z,96.70
2022-08-05T01:38:31.160Z,96.74
2022-08-05T01:40:58.190Z,94.51
2022-08-05T01:43:24.654Z,95.38
2022-08-05T01:45:56.673Z,96.65
2022-08-05T01:48:23.927Z,99.38
2022-08-05T01:50:51.139Z,100.00
2022-08-05T01:53:22.858Z,100.00
2022-08-05T01:56:05.563Z,100.00
2022-08-05T01:58:41.001Z,100.00
2022-08-05T02:01:12.427Z,100.00
2022-08-05T02:03:40.391Z,100.00
2022-08-05T02:06:33.259Z,100.00
2022-08-05T02:08:58.549Z,100.00
2022-08-05T02:11:33.408Z,100.00
2022-08-05T02:14:01.079Z,100.00
2022-08-05T02:16:39.796Z,100.00
2022-08-05T02:19:07.767Z,100.00
2022-08-05T02:21:40.281Z,100.00
2022-08-05T02:24:10.851Z,100.00
2022-08-05T02:26:56.662Z,100.00
2022-08-05T02:29:26.200Z,100.00
2022-08-05T02:32:10.283Z,100.00
2022-08-05T02:34:37.606Z,100.00
2022-08-05T02:37:07.913Z,100.00
2022-08-05T02:39:35.777Z,100.00
2022-08-05T02:42:07.891Z,100.00
2022-08-05T02:44:36.434Z,100.00
2022-08-05T02:47:07.928Z,100.00
2022-08-05T02:49:37.019Z,100.00
2022-08-05T02:52:04.838Z,100.00
2022-08-05T02:54:35.602Z,100.00
2022-08-05T02:57:05.069Z,100.00
2022-08-05T02:59:50.302Z,100.00
2022-08-05T03:02:20.744Z,100.00
2022-08-05T03:04:47.773Z,100.00
2022-08-05T03:07:40.523Z,100.00
2022-08-05T03:10:06.335Z,100.00
2022-08-05T03:12:33.366Z,100.00
2022-08-05T03:14:59.724Z,100.00
2022-08-05T03:17:26.471Z,100.00
2022-08-05T03:19:53.609Z,100.00
2022-08-05T03:22:32.332Z,100.00
2022-08-05T03:25:11.640Z,100.00
2022-08-05T03:27:59.962Z,100.00
2022-08-05T03:30:30.180Z,100.00
2022-08-05T03:33:01.442Z,100.00
2022-08-05T03:35:28.149Z,100.00
2022-08-05T03:37:58.583Z,100.00
2022-08-05T03:40:32.223Z,100.00
2022-08-05T03:42:59.329Z,100.00
2022-08-05T03:45:28.960Z,100.00
2022-08-05T03:47:57.250Z,100.00
2022-08-05T03:50:25.729Z,100.00
2022-08-05T03:55:34.326Z,100.00
2022-08-05T03:56:18.068Z,100.00
2022-08-05T03:58:55.011Z,100.00
2022-08-05T04:01:24.464Z,100.00
2022-08-05T04:04:09.086Z,100.00
2022-08-05T04:06:36.797Z,100.00
2022-08-05T04:09:03.820Z,100.00
2022-08-05T04:11:50.675Z,100.00
2022-08-05T04:14:18.194Z,100.00
2022-08-05T04:16:44.685Z,100.00
2022-08-05T04:19:13.007Z,100.00
2022-08-05T04:22:10.082Z,100.00
2022-08-05T04:24:26.130Z,100.00
2022-08-05T04:26:54.101Z,100.00
2022-08-05T04:29:20.702Z,100.00
2022-08-05T04:31:48.220Z,100.00
2022-08-05T04:34:31.320Z,100.00
2022-08-05T04:36:59.694Z,100.00
2022-08-05T04:39:27.635Z,100.00
2022-08-05T04:41:54.596Z,100.00
2022-08-05T04:44:29.573Z,100.00
2022-08-05T04:46:57.324Z,100.00
2022-08-05T04:49:39.042Z,100.00
2022-08-05T04:52:11.298Z,100.00
2022-08-05T04:54:38.075Z,100.00
2022-08-05T04:57:04.430Z,100.00
2022-08-05T04:59:38.772Z,100.00
2022-08-05T05:02:37.369Z,100.00
2022-08-05T05:04:52.239Z,100.00
2022-08-05T05:07:18.659Z,100.00
2022-08-05T05:09:54.353Z,100.00
2022-08-05T05:12:20.715Z,100.00
2022-08-05T05:14:49.477Z,100.00
2022-08-05T05:17:23.457Z,100.00
2022-08-05T05:19:52.911Z,100.00
2022-08-05T05:22:24.551Z,100.00
2022-08-05T05:24:57.429Z,100.00
2022-08-05T05:27:44.524Z,100.00
2022-08-05T05:30:15.736Z,100.00
2022-08-05T05:32:57.300Z,100.00
2022-08-05T05:35:27.547Z,100.00
2022-08-05T05:38:00.155Z,100.00
2022-08-05T05:40:28.117Z,100.00
2022-08-05T05:42:55.065Z,100.00
2022-08-05T05:45:22.713Z,100.00
2022-08-05T05:48:06.624Z,100.00
2022-08-05T05:50:35.712Z,100.00
2022-08-05T05:53:21.516Z,100.00
2022-08-05T05:55:52.386Z,100.00
2022-08-05T05:58:31.691Z,100.00
2022-08-05T06:01:02.427Z,100.00
2022-08-05T06:03:53.864Z,100.00
2022-08-05T06:06:27.956Z,100.00
2022-08-05T06:08:57.733Z,100.00
2022-08-05T06:11:24.099Z,100.00
2022-08-05T06:13:54.051Z,100.00
2022-08-05T06:16:29.920Z,100.00
2022-08-05T06:19:00.960Z,100.00
2022-08-05T06:21:37.020Z,100.00
2022-08-05T06:24:05.922Z,100.00
2022-08-05T06:26:34.977Z,100.00
2022-08-05T06:29:03.719Z,100.00
2022-08-05T06:31:32.775Z,100.00
2022-08-05T06:34:07.881Z,100.00
2022-08-05T06:36:37.508Z,100.00
2022-08-05T06:39:22.021Z,100.00
2022-08-05T06:41:53.181Z,100.00
2022-08-05T06:44:19.602Z,100.00
2022-08-05T06:46:50.795Z,100.00
2022-08-05T06:49:17.566Z,100.00
2022-08-05T06:51:45.426Z,100.00
2022-08-05T06:54:11.926Z,100.00
2022-08-05T06:56:55.136Z,100.00
2022-08-05T06:59:38.645Z,100.00
2022-08-05T07:02:08.662Z,100.00
2022-08-05T07:04:35.058Z,100.00
2022-08-05T07:07:02.859Z,100.00
2022-08-05T07:09:37.446Z,100.00
2022-08-05T07:12:07.197Z,100.00
2022-08-05T07:14:54.001Z,100.00
2022-08-05T07:18:01.691Z,100.00
2022-08-05T07:22:53.434Z,100.00
2022-08-05T07:25:22.752Z,100.00
2022-08-05T07:28:09.608Z,100.00
2022-08-05T07:30:39.730Z,100.00
2022-08-05T07:33:09.644Z,100.00
2022-08-05T07:35:39.850Z,100.00
2022-08-05T07:38:33.491Z,100.00
2022-08-05T07:41:16.784Z,100.00
2022-08-05T07:43:47.815Z,100.00
2022-08-05T07:46:25.388Z,100.00
2022-08-05T07:49:03.764Z,100.00
2022-08-05T07:51:40.435Z,100.00
2022-08-05T07:54:15.189Z,100.00
2022-08-05T07:57:01.731Z,100.00
2022-08-05T07:59:39.090Z,100.00
2022-08-05T08:02:10.685Z,100.00
2022-08-05T08:04:42.711Z,100.00
2022-08-05T08:07:11.298Z,100.00
2022-08-05T08:09:38.326Z,100.00
2022-08-05T08:12:11.486Z,100.00
2022-08-05T08:14:46.981Z,100.00
2022-08-05T08:17:16.108Z,100.00
2022-08-05T08:20:21.241Z,100.00
2022-08-05T08:22:29.375Z,100.00
2022-08-05T08:24:56.374Z,100.00
2022-08-05T08:27:35.707Z,100.00
2022-08-05T08:30:29.992Z,100.00
2022-08-05T08:33:02.562Z,100.00
2022-08-05T08:35:34.984Z,100.00
2022-08-05T08:38:07.532Z,100.00
2022-08-05T08:40:35.187Z,100.00
2022-08-05T08:45:21.190Z,100.00
2022-08-05T08:45:49.657Z,100.00
2022-08-05T08:48:36.141Z,100.00
2022-08-05T08:52:02.296Z,100.00
2022-08-05T08:53:49.987Z,100.00
2022-08-05T08:56:17.453Z,100.00
2022-08-05T08:58:47.932Z,100.00
2022-08-05T09:01:17.411Z,100.00
2022-08-05T09:03:54.586Z,100.00
2022-08-05T09:06:24.080Z,100.00
2022-08-05T09:08:54.833Z,100.00
2022-08-05T09:11:51.322Z,100.00
2022-08-05T09:14:54.712Z,100.00
2022-08-05T09:16:54.895Z,100.00
2022-08-05T09:19:21.264Z,100.00
2022-08-05T09:22:28.702Z,100.00
2022-08-05T09:24:42.522Z,100.00
2022-08-05T09:27:09.407Z,100.00
2022-08-05T09:29:47.973Z,100.00
2022-08-05T09:32:41.354Z,100.00
2022-08-05T09:35:02.727Z,100.00
2022-08-05T09:38:17.146Z,100.00
2022-08-05T09:40:52.448Z,100.00
2022-08-05T09:43:27.539Z,100.00
2022-08-05T09:46:11.970Z,100.00
2022-08-05T09:48:41.936Z,100.00
2022-08-05T09:51:31.668Z,100.00
2022-08-05T09:54:05.238Z,100.00
2022-08-05T09:56:33.434Z,100.00
2022-08-05T09:59:01.261Z,100.00
2022-08-05T10:01:33.587Z,100.00
2022-08-05T10:04:00.640Z,100.00
2022-08-05T10:06:30.988Z,100.00
2022-08-05T10:09:10.537Z,100.00
2022-08-05T10:11:54.306Z,100.00
2022-08-05T10:14:26.804Z,100.00
2022-08-05T10:16:56.139Z,100.00
2022-08-05T10:19:23.791Z,100.00
2022-08-05T10:22:25.849Z,100.00
2022-08-05T10:24:55.742Z,100.00
2022-08-05T10:27:26.362Z,100.00
2022-08-05T10:32:46.947Z,100.00
2022-08-05T10:33:00.947Z,100.00
2022-08-05T10:35:33.971Z,100.00
2022-08-05T10:38:08.359Z,100.00
2022-08-05T10:40:43.721Z,100.00
2022-08-05T10:43:30.939Z,100.00
2022-08-05T10:46:06.975Z,100.00
2022-08-05T10:48:52.806Z,100.00
2022-08-05T10:51:28.451Z,100.00
2022-08-05T10:53:58.445Z,100.00
2022-08-05T10:56:28.150Z,100.00
2022-08-05T10:58:55.333Z,100.00
2022-08-05T11:01:54.042Z,100.00
2022-08-05T11:04:17.383Z,100.00
2022-08-05T11:07:06.509Z,100.00
2022-08-05T11:09:46.517Z,100.00
2022-08-05T11:12:32.421Z,100.00
2022-08-05T11:15:19.750Z,100.00
2022-08-05T11:17:59.038Z,100.00
2022-08-05T11:20:43.936Z,100.00
2022-08-05T11:23:33.311Z,100.00
2022-08-05T11:26:16.132Z,100.00
2022-08-05T11:28:55.710Z,100.00
2022-08-05T11:31:58.122Z,100.00
2022-08-05T11:34:15.082Z,100.00
2022-08-05T11:36:47.143Z,100.00
2022-08-05T11:39:38.298Z,100.00
2022-08-05T11:42:07.464Z,100.00
2022-08-05T11:44:53.075Z,100.00
2022-08-05T11:47:22.050Z,100.00
2022-08-05T11:50:07.610Z,100.00
2022-08-05T11:52:34.009Z,100.00
2022-08-05T11:55:07.422Z,100.00
2022-08-05T11:58:08.249Z,100.00
2022-08-05T12:00:30.339Z,100.00
2022-08-05T12:02:57.022Z,100.00
2022-08-05T12:05:32.493Z,100.00
2022-08-05T12:08:09.591Z,100.00
2022-08-05T12:10:43.710Z,100.00
2022-08-05T12:13:17.336Z,100.00
2022-08-05T12:15:55.925Z,100.00
2022-08-05T12:18:33.205Z,100.00
2022-08-05T12:21:10.008Z,100.00
2022-08-05T12:23:36.699Z,100.00
2022-08-05T12:26:09.671Z,100.00
2022-08-05T12:28:36.763Z,100.00
2022-08-05T12:31:03.320Z,100.00
2022-08-05T12:33:36.252Z,100.00
2022-08-05T12:36:03.346Z,100.00
2022-08-05T12:38:33.609Z,100.00
2022-08-05T12:41:03.066Z,100.00
2022-08-05T12:43:31.959Z,100.00
2022-08-05T12:45:58.666Z,100.00
2022-08-05T12:48:27.843Z,100.00
2022-08-05T12:52:10.777Z,100.00
2022-08-05T12:53:59.785Z,100.00
2022-08-05T12:56:34.948Z,96.37
2022-08-05T12:59:13.918Z,100.00
2022-08-05T13:02:01.453Z,95.04
2022-08-05T13:04:41.745Z,100.00
2022-08-05T13:07:57.434Z,95.08
2022-08-05T13:10:14.666Z,100.00
2022-08-05T13:12:51.006Z,98.56
2022-08-05T13:15:42.117Z,95.50
2022-08-05T13:18:19.811Z,96.53
2022-08-05T13:20:46.875Z,93.50
2022-08-05T13:23:13.454Z,91.57
2022-08-05T13:25:51.872Z,93.53
2022-08-05T13:28:25.549Z,92.85
2022-08-05T13:30:53.359Z,95.33
2022-08-05T13:34:23.461Z,94.76
2022-08-05T13:36:06.254Z,96.19
2022-08-05T13:38:38.220Z,90.87
2022-08-05T13:41:05.024Z,95.97
2022-08-05T13:43:44.130Z,94.46
2022-08-05T13:46:12.659Z,88.53
2022-08-05T13:48:57.963Z,91.38
2022-08-05T13:51:26.342Z,84.44
2022-08-05T13:53:58.049Z,84.80
2022-08-05T13:56:25.473Z,85.51
2022-08-05T13:58:53.302Z,86.29
2022-08-05T14:01:21.999Z,86.43
2022-08-05T14:04:12.499Z,83.57
2022-08-05T14:06:38.876Z,87.50
2022-08-05T14:09:14.035Z,85.90
2022-08-05T14:12:03.920Z,89.21
2022-08-05T14:14:33.535Z,88.38
2022-08-05T14:17:00.265Z,88.20
2022-08-05T14:19:27.207Z,85.91
2022-08-05T14:22:10.085Z,87.05
2022-08-05T14:24:39.813Z,82.67
2022-08-05T14:27:17.481Z,81.11
2022-08-05T14:29:44.839Z,85.03
2022-08-05T14:32:26.812Z,84.03
2022-08-05T14:34:53.850Z,78.67
2022-08-05T14:37:23.101Z,79.89
2022-08-05T14:40:09.798Z,83.29
2022-08-05T14:42:41.231Z,81.56
2022-08-05T14:45:09.063Z,84.74
2022-08-05T14:48:02.678Z,86.95
2022-08-05T14:50:21.801Z,84.39
2022-08-05T14:52:53.580Z,82.96
2022-08-05T14:55:24.580Z,84.17
2022-08-05T14:57:54.315Z,83.10
2022-08-05T15:00:28.168Z,83.92
2022-08-05T15:02:54.979Z,83.73
2022-08-05T15:05:21.450Z,85.42
2022-08-05T15:08:11.357Z,83.04
2022-08-05T15:10:34.268Z,83.56
2022-08-05T15:13:04.214Z,80.07
2022-08-05T15:15:55.747Z,81.87
2022-08-05T15:18:17.500Z,80.40
2022-08-05T15:20:43.902Z,81.84
2022-08-05T15:23:12.914Z,81.89
2022-08-05T15:25:51.219Z,80.92
2022-08-05T15:28:20.352Z,80.48
2022-08-05T15:30:53.111Z,84.83
2022-08-05T15:34:04.175Z,84.53
2022-08-05T15:36:06.283Z,82.42
2022-08-05T15:38:43.594Z,82.86
2022-08-05T15:41:21.404Z,83.02
2022-08-05T15:43:50.010Z,83.55
2022-08-05T15:46:16.521Z,83.32
2022-08-05T15:48:46.821Z,80.82
2022-08-05T15:52:13.741Z,86.04
2022-08-05T15:54:15.255Z,83.43
2022-08-05T15:56:42.239Z,83.85
2022-08-05T15:59:09.976Z,83.40
2022-08-05T16:01:52.376Z,86.67
2022-08-05T16:04:20.346Z,87.53
2022-08-05T16:06:51.651Z,83.71
2022-08-05T16:09:18.007Z,80.74
2022-08-05T16:11:52.645Z,82.13
2022-08-05T16:14:19.490Z,81.37
2022-08-05T16:16:46.283Z,88.04
2022-08-05T16:19:25.829Z,84.80
2022-08-05T16:22:02.648Z,84.46
2022-08-05T16:24:41.191Z,86.12
2022-08-05T16:27:08.407Z,84.17
2022-08-05T16:29:37.689Z,82.71
2022-08-05T16:32:04.709Z,83.83
2022-08-05T16:34:31.080Z,82.34
2022-08-05T16:36:57.467Z,82.11
2022-08-05T16:40:04.584Z,81.68
2022-08-05T16:42:14.338Z,85.46
2022-08-05T16:44:44.388Z,84.15
2022-08-05T16:47:28.543Z,80.86
2022-08-05T16:50:02.267Z,81.15
2022-08-05T16:52:32.561Z,82.06
2022-08-05T16:55:00.139Z,83.22
2022-08-05T16:57:49.474Z,80.13
2022-08-05T17:00:14.191Z,87.07
2022-08-05T17:02:52.684Z,79.98
2022-08-05T17:05:19.080Z,84.62
2022-08-05T17:07:53.017Z,81.69
2022-08-05T17:10:21.159Z,81.27
2022-08-05T17:12:54.651Z,80.90
2022-08-05T17:15:21.196Z,80.20
2022-08-05T17:17:55.245Z,79.68
2022-08-05T17:20:21.882Z,86.00
2022-08-05T17:22:55.112Z,85.66
2022-08-05T17:25:39.618Z,86.19
2022-08-05T17:28:06.863Z,87.54
2022-08-05T17:30:42.445Z,90.08
2022-08-05T17:33:16.836Z,89.63
2022-08-05T17:36:07.300Z,88.00
2022-08-05T17:38:29.535Z,82.62
2022-08-05T17:40:55.997Z,71.20
2022-08-05T17:43:46.969Z,68.18
2022-08-05T17:46:10.416Z,61.68
2022-08-05T17:48:36.783Z,65.76
2022-08-05T17:51:03.157Z,61.95
2022-08-05T17:53:35.942Z,62.04
2022-08-05T17:56:04.525Z,64.36
2022-08-05T17:58:32.713Z,68.09
2022-08-05T18:00:59.247Z,62.83
2022-08-05T18:03:58.325Z,67.38
2022-08-05T18:06:15.524Z,66.68
2022-08-05T18:08:51.996Z,68.87
2022-08-05T18:11:23.934Z,71.35
2022-08-05T18:13:55.962Z,72.26
2022-08-05T18:16:22.336Z,69.71
2022-08-05T18:18:50.116Z,70.88
2022-08-05T18:21:19.554Z,69.61
2022-08-05T18:23:47.084Z,66.93
2022-08-05T18:26:13.708Z,67.67
2022-08-05T18:28:44.665Z,67.08
2022-08-05T18:31:13.260Z,71.77
2022-08-05T18:33:47.267Z,68.59
2022-08-05T18:36:16.243Z,69.83
2022-08-05T18:38:45.483Z,72.15
2022-08-05T18:41:53.562Z,72.58
2022-08-05T18:43:58.461Z,78.64
2022-08-05T18:46:33.011Z,75.93
2022-08-05T18:49:19.762Z,75.61
2022-08-05T18:52:09.110Z,76.48
2022-08-05T18:54:41.463Z,80.02
2022-08-05T18:57:15.035Z,75.22
2022-08-05T19:00:01.688Z,73.96
2022-08-05T19:02:28.918Z,76.28
2022-08-05T19:05:02.041Z,83.80
2022-08-05T19:07:46.205Z,85.56
2022-08-05T19:10:13.764Z,86.42
2022-08-05T19:12:40.135Z,89.73
2022-08-05T19:15:06.930Z,89.80
2022-08-05T19:18:08.587Z,92.61
2022-08-05T19:20:36.259Z,93.57
2022-08-05T19:23:03.113Z,92.37
2022-08-05T19:25:39.071Z,93.82
2022-08-05T19:28:09.914Z,91.32
2022-08-05T19:30:36.419Z,93.33
2022-08-05T19:33:04.641Z,95.77
2022-08-05T19:35:52.212Z,93.03
2022-08-05T19:38:26.419Z,95.39
2022-08-05T19:40:53.224Z,93.64
2022-08-05T19:44:04.956Z,92.10
2022-08-05T19:46:06.139Z,94.92
2022-08-05T19:48:52.474Z,95.59
2022-08-05T19:52:05.702Z,95.59
2022-08-05T19:54:25.389Z,93.56
2022-08-05T19:56:56.934Z,93.47
2022-08-05T19:59:54.949Z,95.65
2022-08-05T20:02:09.754Z,93.88
2022-08-05T20:04:37.402Z,96.88
2022-08-05T20:07:03.801Z,97.78
2022-08-05T20:09:53.999Z,100.00
2022-08-05T20:12:22.246Z,100.00
2022-08-05T20:14:52.094Z,98.41
2022-08-05T20:17:19.062Z,99.37
2022-08-05T20:19:49.742Z,99.82
2022-08-05T20:22:16.225Z,100.00
2022-08-05T20:24:43.095Z,100.00
2022-08-05T20:27:11.668Z,100.00
2022-08-05T20:29:38.190Z,100.00
2022-08-05T20:32:06.226Z,100.00
2022-08-05T20:34:32.609Z,100.00
2022-08-05T20:37:00.581Z,100.00
2022-08-05T20:39:35.651Z,100.00
2022-08-05T20:42:03.845Z,100.00
2022-08-05T20:44:31.122Z,100.00
2022-08-05T20:46:58.185Z,100.00
2022-08-05T20:49:26.092Z,100.00
2022-08-05T20:51:53.346Z,100.00
2022-08-05T20:54:20.361Z,100.00
2022-08-05T20:56:47.222Z,99.55
2022-08-05T20:59:26.601Z,97.75
2022-08-05T21:01:56.287Z,99.00
2022-08-05T21:04:23.811Z,97.69
2022-08-05T21:06:53.831Z,98.13
2022-08-05T21:09:20.182Z,96.99
2022-08-05T21:12:09.861Z,97.74
2022-08-05T21:14:35.252Z,99.14
2022-08-05T21:17:02.218Z,98.51
2022-08-05T21:19:47.331Z,98.67
2022-08-05T21:22:17.715Z,97.97
2022-08-05T21:24:45.255Z,98.00
2022-08-05T21:27:15.465Z,99.82
2022-08-05T21:29:42.969Z,99.09
2022-08-05T21:32:19.777Z,99.16
2022-08-05T21:34:46.302Z,99.77
2022-08-05T21:37:32.650Z,98.88
2022-08-05T21:39:59.074Z,95.65
2022-08-05T21:42:41.021Z,97.26
2022-08-05T21:45:11.024Z,99.14
2022-08-05T21:47:55.823Z,100.00
2022-08-05T21:50:23.793Z,100.00
2022-08-05T21:52:50.149Z,100.00
2022-08-05T21:55:18.214Z,99.05
2022-08-05T21:58:04.655Z,100.00
2022-08-05T22:00:31.062Z,100.00
2022-08-05T22:02:57.557Z,100.00
2022-08-05T22:05:27.441Z,100.00
2022-08-05T22:07:59.204Z,100.00
2022-08-05T22:10:29.019Z,100.00
2022-08-05T22:12:57.385Z,100.00
2022-08-05T22:16:00.956Z,100.00
2022-08-05T22:18:11.154Z,100.00
2022-08-05T22:20:39.105Z,100.00
2022-08-05T22:23:25.017Z,100.00
2022-08-05T22:26:49.794Z,100.00
2022-08-05T22:29:17.509Z,100.00
2022-08-05T22:31:45.365Z,100.00
2022-08-05T22:34:12.866Z,100.00
2022-08-05T22:36:46.601Z,100.00
2022-08-05T22:39:19.568Z,100.00
2022-08-05T22:42:11.074Z,100.00
2022-08-05T22:44:34.299Z,100.00
2022-08-05T22:47:00.686Z,100.00
2022-08-05T22:50:21.634Z,99.96
2022-08-05T22:52:22.785Z,100.00
2022-08-05T22:54:58.495Z,100.00
2022-08-05T22:57:24.943Z,100.00
2022-08-05T22:59:54.234Z,100.00
2022-08-05T23:02:20.821Z,100.00
2022-08-05T23:04:56.291Z,100.00
2022-08-05T23:07:22.662Z,100.00
2022-08-05T23:09:58.455Z,100.00
2022-08-05T23:12:32.634Z,100.00
2022-08-05T23:14:59.795Z,100.00
2022-08-05T23:17:35.086Z,100.00
2022-08-05T23:20:05.708Z,100.00
2022-08-05T23:22:37.019Z,100.00
2022-08-05T23:25:03.750Z,100.00
2022-08-05T23:27:31.439Z,100.00
2022-08-05T23:30:10.782Z,100.00
2022-08-05T23:32:37.326Z,100.00
2022-08-05T23:35:07.235Z,100.00
2022-08-05T23:37:36.576Z,100.00
2022-08-05T23:40:07.640Z,100.00
2022-08-05T23:42:37.303Z,100.00
2022-08-05T23:45:04.391Z,100.00
2022-08-05T23:47:48.022Z,100.00
2022-08-05T23:50:14.772Z,100.00
2022-08-05T23:52:49.865Z,100.00
2022-08-05T23:55:17.077Z,100.00
2022-08-05T23:57:43.848Z,100.00
